Airfield :
LOGIN :

Register | Disclaimer

   EN    FR    IT 

 










Legend :    VFR   Marginal VFR   IFR   Intensive IFR   Very Intensive IFR
Visi :
Ceiling :
>= 8 km
>= 3000ft
5 to 8 km
1000 to 3000 ft
1500m to 5 km
500 to 1000 ft
800 to 1500m
200 to 500 ft
< 800m
< 200 ft
Symbols :   Thunderstorms  Fog  Heavy snow  Heavy precipitations  Wind > 20 kt
SIGMETs :     Misc.  Thunderstorms  Icing  Turbulence  Mountain Waves  Volcanic Ashes






- Airport Elevation : 1187 ft


LIBV - Gioia del Colle Bari

CURRENT METAR :
  • 151855Z 22003KT 9999 FEW011 SCT040 03/02 Q1011 RMK OVC BKN090 VIS MIN 9999 WIND THR32 25003KT WIND THR14 22003KT BLU

EXPIRED METARs :
  • 151755Z 19007KT 9999 -RA BKN035 04/02 Q1011 RMK OVC SCT060 VIS MIN 9999 WIND THR32 18006KT WIND THR14 21007KT BLU
  • 151655Z 19005KT 9999 BKN033 05/M01 Q1011 RMK OVC BKN066 VIS MIN 9999 WIND THR32 19007KT WIND THR14 20004KT BLU

TAF TAF LIBV
Valid from the 15 at 18:00 until the 16 at 03:00 UTC


151700Z 1518/1603 36010KT 9999 SCT030
TEMPO 1518/1521 BKN030
BECMG 1600/1603 36015KT BKN030



MET'MAP, your aeronautical weather chart ! - Copyright ORBIFLY December 2007 - Disclaimer

ORBIFLY MET'MAP TEAM :

Programming & Development : Alexandra Zaïnal
Concept & original design : Baudouin d'Aumeries
Assistance for programming : Marc-Olivier Méhu
Technical & hardware support : Manuel Goepfert

Contact : metmap@orbifly.com




SOURCES & CREDITS :

   NOAA